Time;durP1;ratioP1;P1;durP2;ratioP2;P2;SDS_P1;SDS_P2;PMS_P1;PMS_P2;Temp;Humidity;BMP_temperature;BMP_pressure;BME280_temperature;BME280_humidity;BME280_pressure;Samples;Min_cycle;Max_cycle;Signal;HPM_P1;HPM_P2
2022/03/07 00:02:03;;;;;;;14.23;6.95;;;1.50;99.90;;;;;;5048280;28;20052;-68
2022/03/07 00:04:29;;;;;;;9.18;7.03;;;1.50;99.90;;;;;;5050067;28;20551;-69
2022/03/07 00:06:54;;;;;;;11.77;6.88;;;1.50;99.90;;;;;;5050041;28;20041;-69
2022/03/07 00:09:20;;;;;;;8.90;6.93;;;1.50;99.90;;;;;;5050045;28;20071;-69
2022/03/07 00:11:45;;;;;;;11.55;7.40;;;1.50;99.90;;;;;;5049380;28;20063;-69
2022/03/07 00:14:12;;;;;;;10.85;7.53;;;1.40;99.90;;;;;;5050183;28;20037;-69
2022/03/07 00:16:38;;;;;;;8.50;7.13;;;1.40;99.90;;;;;;5053148;28;20121;-68
2022/03/07 00:19:03;;;;;;;9.88;6.82;;;1.40;99.90;;;;;;5054239;28;20502;-68
2022/03/07 00:21:29;;;;;;;11.43;6.63;;;1.40;99.90;;;;;;5054139;28;20033;-69
2022/03/07 00:23:54;;;;;;;10.45;6.70;;;1.40;99.90;;;;;;5053650;28;20103;-69
2022/03/07 00:26:20;;;;;;;13.35;6.68;;;1.40;99.90;;;;;;5053985;28;20176;-69
2022/03/07 00:28:47;;;;;;;12.18;8.15;;;1.30;99.90;;;;;;5052641;28;20496;-68
2022/03/07 00:31:13;;;;;;;11.13;7.10;;;1.30;99.90;;;;;;5053858;28;20044;-69
2022/03/07 00:33:39;;;;;;;11.68;6.70;;;1.30;99.90;;;;;;5053059;28;20041;-69
2022/03/07 00:36:05;;;;;;;8.30;6.57;;;1.20;99.90;;;;;;5053539;28;20045;-69
2022/03/07 00:38:31;;;;;;;13.55;7.15;;;1.20;99.90;;;;;;5054005;28;20045;-68
2022/03/07 00:40:57;;;;;;;10.32;7.35;;;1.20;99.90;;;;;;5054744;28;20111;-69
2022/03/07 00:43:23;;;;;;;10.65;7.03;;;1.20;99.90;;;;;;5073086;28;20120;-69
2022/03/07 00:45:49;;;;;;;11.40;7.70;;;1.20;99.90;;;;;;5077222;28;20159;-69
2022/03/07 00:48:15;;;;;;;13.38;7.93;;;1.20;99.90;;;;;;5062624;28;20033;-69
2022/03/07 00:50:43;;;;;;;11.60;7.90;;;1.10;99.90;;;;;;5055843;28;20047;-69
2022/03/07 00:53:14;;;;;;;14.27;7.65;;;1.10;99.90;;;;;;5055738;28;20037;-69
2022/03/07 00:55:40;;;;;;;14.52;7.90;;;1.10;99.90;;;;;;5054869;28;20464;-69
2022/03/07 00:58:06;;;;;;;12.02;7.85;;;1.10;99.90;;;;;;5053711;28;20052;-69
2022/03/07 01:00:33;;;;;;;17.08;8.15;;;1.10;99.90;;;;;;5053751;28;20033;-69
2022/03/07 01:02:59;;;;;;;11.18;7.85;;;1.00;99.90;;;;;;5052850;28;20033;-69
2022/03/07 01:05:24;;;;;;;11.65;7.78;;;1.00;99.90;;;;;;5052216;28;20043;-69
2022/03/07 01:07:50;;;;;;;12.40;7.20;;;1.00;99.90;;;;;;5053364;28;20512;-69
2022/03/07 01:10:15;;;;;;;14.25;8.30;;;1.00;99.90;;;;;;5053334;28;20041;-69
2022/03/07 01:12:41;;;;;;;11.73;7.20;;;0.90;99.90;;;;;;5052382;28;20041;-69
2022/03/07 01:15:08;;;;;;;13.05;7.38;;;0.80;99.90;;;;;;5053035;28;20052;-69
2022/03/07 01:17:34;;;;;;;10.68;7.30;;;0.90;99.90;;;;;;5052335;28;20075;-69
2022/03/07 01:20:00;;;;;;;13.02;7.78;;;0.90;99.90;;;;;;5053298;28;20037;-69
2022/03/07 01:22:26;;;;;;;10.30;7.15;;;0.90;99.90;;;;;;5034283;28;20039;-69
2022/03/07 01:24:52;;;;;;;9.77;7.55;;;0.90;99.90;;;;;;5053181;28;20037;-69
2022/03/07 01:27:17;;;;;;;9.50;6.20;;;0.90;99.90;;;;;;5052529;28;20517;-69
2022/03/07 01:29:43;;;;;;;10.13;7.25;;;1.00;99.90;;;;;;5052983;28;20164;-69
2022/03/07 01:32:08;;;;;;;13.60;7.25;;;1.00;99.90;;;;;;5052174;28;20049;-69
2022/03/07 01:34:34;;;;;;;11.45;7.35;;;0.90;99.90;;;;;;5051448;28;20120;-69
2022/03/07 01:37:00;;;;;;;12.93;7.72;;;1.00;99.90;;;;;;5052771;28;20432;-68
2022/03/07 01:39:25;;;;;;;9.65;7.22;;;0.90;99.90;;;;;;5052718;28;20417;-69
2022/03/07 01:41:51;;;;;;;10.50;7.40;;;0.90;99.90;;;;;;5051939;28;20041;-69
2022/03/07 01:44:22;;;;;;;12.85;7.50;;;0.90;99.90;;;;;;5052842;28;20053;-69
2022/03/07 01:46:48;;;;;;;12.98;8.00;;;0.80;99.90;;;;;;5052593;28;20041;-69
2022/03/07 01:49:14;;;;;;;19.30;8.48;;;0.80;99.90;;;;;;5052492;28;20128;-69
2022/03/07 01:51:41;;;;;;;12.90;7.82;;;0.80;99.90;;;;;;5052084;28;20092;-69
2022/03/07 01:54:10;;;;;;;15.63;7.38;;;0.80;99.90;;;;;;5052550;28;20055;-69
2022/03/07 01:56:35;;;;;;;12.77;8.10;;;0.80;99.90;;;;;;5051766;28;20040;-69
2022/03/07 01:59:03;;;;;;;15.80;8.98;;;0.80;99.90;;;;;;5052048;28;20401;-68
2022/03/07 02:01:29;;;;;;;15.80;8.95;;;0.70;99.90;;;;;;5050881;28;20045;-68
2022/03/07 02:03:54;;;;;;;14.02;8.18;;;0.70;99.90;;;;;;5050398;28;20049;-69
2022/03/07 02:06:21;;;;;;;15.65;8.50;;;0.70;99.90;;;;;;5052143;28;20137;-69
2022/03/07 02:08:48;;;;;;;13.63;8.48;;;0.60;99.90;;;;;;5050695;28;20150;-68
2022/03/07 02:11:15;;;;;;;14.52;8.27;;;0.60;99.90;;;;;;5051953;28;20099;-69
2022/03/07 02:13:41;;;;;;;11.38;8.40;;;0.60;99.90;;;;;;5052991;28;20049;-69
2022/03/07 02:16:07;;;;;;;16.42;9.13;;;0.60;99.90;;;;;;5055242;28;20370;-69
2022/03/07 02:18:33;;;;;;;14.52;8.73;;;0.60;99.90;;;;;;5063547;28;20037;-68
2022/03/07 02:21:07;;;;;;;17.15;8.57;;;0.60;99.90;;;;;;5072920;28;20032;-69
2022/03/07 02:23:32;;;;;;;13.30;9.23;;;0.60;99.90;;;;;;5060997;28;20044;-68
2022/03/07 02:25:58;;;;;;;13.18;8.27;;;0.50;99.90;;;;;;5054047;28;20044;-68
2022/03/07 02:28:24;;;;;;;16.60;8.93;;;0.50;99.90;;;;;;5053039;28;20273;-68
2022/03/07 02:30:52;;;;;;;18.60;8.75;;;0.50;99.90;;;;;;5052348;28;20064;-67
2022/03/07 02:33:18;;;;;;;15.40;9.90;;;0.50;99.90;;;;;;5051004;28;20068;-68
2022/03/07 02:35:44;;;;;;;11.32;8.15;;;0.50;99.90;;;;;;5051785;28;20033;-68
2022/03/07 02:38:17;;;;;;;13.82;8.32;;;0.50;99.90;;;;;;5051337;28;20049;-68
2022/03/07 02:40:44;;;;;;;14.18;8.38;;;0.40;99.90;;;;;;5034663;28;20064;-68
2022/03/07 02:43:09;;;;;;;14.07;8.50;;;0.40;99.90;;;;;;5051501;28;20044;-68
2022/03/07 02:45:35;;;;;;;15.70;8.95;;;0.40;99.90;;;;;;5051541;28;20037;-68
2022/03/07 02:48:00;;;;;;;14.60;9.02;;;0.40;99.90;;;;;;5051696;28;20118;-68
2022/03/07 02:50:26;;;;;;;16.17;9.95;;;0.40;99.90;;;;;;5051076;28;20064;-68
2022/03/07 02:52:51;;;;;;;16.35;8.38;;;0.40;99.90;;;;;;5050576;28;20067;-68
2022/03/07 02:55:18;;;;;;;15.75;9.15;;;0.40;99.90;;;;;;5051372;28;20096;-68
2022/03/07 02:57:43;;;;;;;14.15;8.27;;;0.40;99.90;;;;;;5051294;28;20045;-68
2022/03/07 03:00:09;;;;;;;14.93;8.80;;;0.40;99.90;;;;;;5051038;28;20063;-68
2022/03/07 03:02:35;;;;;;;15.52;8.15;;;0.30;99.90;;;;;;5049661;28;20102;-67
2022/03/07 03:05:01;;;;;;;16.38;8.90;;;0.40;99.90;;;;;;5051048;28;20045;-68
2022/03/07 03:07:26;;;;;;;16.33;9.02;;;0.30;99.90;;;;;;5050782;28;20090;-68
2022/03/07 03:09:52;;;;;;;14.00;9.30;;;0.30;99.90;;;;;;5051005;28;20037;-68
2022/03/07 03:12:19;;;;;;;13.40;8.73;;;0.20;99.90;;;;;;5050222;28;20041;-68
2022/03/07 03:14:46;;;;;;;17.70;9.80;;;0.20;99.90;;;;;;5051530;28;20044;-68
2022/03/07 03:17:12;;;;;;;12.45;8.65;;;0.20;99.90;;;;;;5050760;28;20184;-68
2022/03/07 03:19:37;;;;;;;16.35;9.32;;;0.20;99.90;;;;;;5051050;28;20496;-68
2022/03/07 03:22:03;;;;;;;16.00;8.65;;;0.20;99.90;;;;;;5050215;28;20098;-68
2022/03/07 03:24:28;;;;;;;15.77;9.05;;;0.20;99.90;;;;;;5050817;28;20033;-68
2022/03/07 03:26:54;;;;;;;11.68;8.77;;;0.10;99.90;;;;;;5049413;28;20045;-68
2022/03/07 03:29:20;;;;;;;12.80;8.90;;;0.10;99.90;;;;;;5050724;28;20047;-68
2022/03/07 03:31:45;;;;;;;20.83;9.55;;;0.20;99.90;;;;;;5049787;28;20040;-68
2022/03/07 03:34:11;;;;;;;14.55;8.55;;;0.10;99.90;;;;;;5050422;28;20059;-68
2022/03/07 03:36:36;;;;;;;14.95;9.02;;;0.10;99.90;;;;;;5052602;28;20155;-68
2022/03/07 03:39:02;;;;;;;12.88;7.93;;;0.10;99.90;;;;;;5051989;28;20044;-67
2022/03/07 03:41:28;;;;;;;18.70;9.85;;;0.10;99.90;;;;;;5050867;28;20051;-68
2022/03/07 03:43:53;;;;;;;14.40;8.75;;;0.00;99.90;;;;;;5048165;28;20116;-68
2022/03/07 03:46:19;;;;;;;13.93;8.98;;;0.00;99.90;;;;;;5050006;28;20083;-68
2022/03/07 03:48:44;;;;;;;11.40;8.38;;;0.00;99.90;;;;;;5050385;28;20082;-68
2022/03/07 03:51:10;;;;;;;15.25;9.00;;;0.00;99.90;;;;;;5049054;28;20045;-68
2022/03/07 03:53:36;;;;;;;11.27;7.68;;;0.00;99.90;;;;;;5050173;28;20064;-68
2022/03/07 03:56:01;;;;;;;15.07;9.05;;;-0.10;99.90;;;;;;5060496;28;20029;-68
2022/03/07 03:58:27;;;;;;;14.68;8.38;;;-0.10;99.90;;;;;;5073567;28;20056;-67
2022/03/07 04:00:52;;;;;;;14.57;9.05;;;0.00;99.90;;;;;;5071859;28;20651;-68
2022/03/07 04:03:18;;;;;;;16.10;9.05;;;0.10;99.90;;;;;;5048240;28;20120;-68
2022/03/07 04:05:44;;;;;;;11.50;8.60;;;0.10;99.90;;;;;;5050051;28;20485;-68
2022/03/07 04:08:10;;;;;;;12.25;7.65;;;0.10;99.90;;;;;;5050316;28;20033;-68
2022/03/07 04:10:35;;;;;;;14.60;9.55;;;0.10;99.90;;;;;;5048853;28;20124;-68
2022/03/07 04:13:01;;;;;;;16.45;9.38;;;0.10;99.90;;;;;;5049740;28;20095;-68
2022/03/07 04:15:26;;;;;;;15.80;9.40;;;0.10;99.90;;;;;;5050020;28;20049;-67
2022/03/07 04:17:54;;;;;;;18.67;8.85;;;0.20;99.90;;;;;;5049844;28;20043;-68
2022/03/07 04:20:19;;;;;;;12.68;7.72;;;0.10;99.90;;;;;;5048394;28;20048;-68
2022/03/07 04:22:45;;;;;;;12.55;8.73;;;0.10;99.90;;;;;;5049313;28;20045;-68
2022/03/07 04:25:12;;;;;;;12.27;8.57;;;0.10;99.90;;;;;;5050095;28;20033;-68
2022/03/07 04:27:38;;;;;;;16.30;9.27;;;0.10;99.90;;;;;;5050154;28;20037;-68
2022/03/07 04:30:07;;;;;;;20.17;9.23;;;0.10;99.90;;;;;;5048551;28;20052;-68
2022/03/07 04:32:36;;;;;;;13.13;8.38;;;0.10;99.90;;;;;;5047649;28;20128;-67
2022/03/07 04:35:05;;;;;;;12.38;8.77;;;0.10;99.90;;;;;;5048392;28;20033;-68
2022/03/07 04:37:31;;;;;;;13.65;8.95;;;0.20;99.90;;;;;;5049780;28;20041;-67
2022/03/07 04:39:58;;;;;;;14.27;9.25;;;0.20;99.90;;;;;;5048306;28;20041;-67
2022/03/07 04:42:24;;;;;;;13.00;8.60;;;0.20;99.90;;;;;;5049142;28;20082;-68
2022/03/07 04:44:50;;;;;;;14.07;8.95;;;0.10;99.90;;;;;;5049796;28;20116;-68
2022/03/07 04:47:15;;;;;;;13.70;8.43;;;0.10;99.90;;;;;;5049548;28;20045;-68
2022/03/07 04:49:41;;;;;;;12.40;8.23;;;0.20;99.90;;;;;;5049838;28;20063;-68
2022/03/07 04:52:07;;;;;;;11.85;8.32;;;0.30;99.90;;;;;;5048983;28;20120;-68
2022/03/07 04:54:32;;;;;;;14.23;9.27;;;0.10;99.90;;;;;;5049772;28;20144;-67
2022/03/07 04:56:58;;;;;;;13.82;8.82;;;0.10;99.90;;;;;;5049396;28;20044;-68
2022/03/07 04:59:23;;;;;;;13.52;8.70;;;0.20;99.90;;;;;;5049714;28;20127;-68
2022/03/07 05:01:49;;;;;;;14.60;8.18;;;0.10;99.90;;;;;;5052704;28;20131;-68
2022/03/07 05:04:14;;;;;;;13.45;8.45;;;0.20;99.90;;;;;;5055752;28;20072;-67
2022/03/07 05:06:40;;;;;;;9.93;8.23;;;0.30;99.90;;;;;;5053161;28;20040;-67
2022/03/07 05:09:06;;;;;;;13.75;8.63;;;0.30;99.90;;;;;;5051667;28;20051;-67
2022/03/07 05:11:32;;;;;;;13.68;8.70;;;0.30;99.90;;;;;;5052929;28;20136;-67
2022/03/07 05:13:57;;;;;;;13.82;8.82;;;0.20;99.90;;;;;;5052587;28;20124;-68
2022/03/07 05:16:23;;;;;;;12.45;8.50;;;0.10;99.90;;;;;;5052843;28;20049;-69
2022/03/07 05:18:49;;;;;;;13.25;9.23;;;0.20;99.90;;;;;;5053070;28;20545;-68
2022/03/07 05:21:15;;;;;;;12.65;8.95;;;0.20;99.90;;;;;;5051635;28;20048;-69
2022/03/07 05:23:41;;;;;;;13.18;8.65;;;0.20;99.90;;;;;;5051197;28;20211;-68
2022/03/07 05:26:08;;;;;;;18.92;9.68;;;0.20;99.90;;;;;;5053095;28;20176;-68
2022/03/07 05:28:34;;;;;;;12.35;8.68;;;0.30;99.90;;;;;;5053006;28;20041;-68
2022/03/07 05:31:00;;;;;;;14.15;9.00;;;0.30;99.90;;;;;;5052726;28;20048;-68
2022/03/07 05:33:26;;;;;;;13.40;8.35;;;0.20;99.90;;;;;;5052103;28;20044;-69
2022/03/07 05:35:52;;;;;;;13.43;8.23;;;0.20;99.90;;;;;;5058851;28;20037;-67
2022/03/07 05:38:18;;;;;;;13.77;9.25;;;0.20;99.90;;;;;;5074108;28;20041;-68
2022/03/07 05:40:44;;;;;;;16.70;10.23;;;0.20;99.90;;;;;;5074315;28;20031;-68
2022/03/07 05:43:10;;;;;;;20.48;10.95;;;0.20;99.90;;;;;;5052681;28;20083;-69
2022/03/07 05:45:35;;;;;;;16.65;11.68;;;0.10;99.90;;;;;;5052688;28;20037;-69
2022/03/07 05:48:01;;;;;;;21.73;10.05;;;0.20;99.90;;;;;;5052449;28;20517;-68
2022/03/07 05:50:27;;;;;;;14.75;9.38;;;0.20;99.90;;;;;;5052384;28;20044;-68
2022/03/07 05:52:52;;;;;;;13.77;8.70;;;0.30;99.90;;;;;;5051622;28;20037;-68
2022/03/07 05:55:18;;;;;;;14.07;8.63;;;0.30;99.90;;;;;;5052396;28;20064;-68
2022/03/07 05:57:43;;;;;;;19.02;9.40;;;0.30;99.90;;;;;;5052267;28;20067;-68
2022/03/07 06:00:10;;;;;;;13.88;9.18;;;0.30;99.90;;;;;;5051421;28;20068;-68
2022/03/07 06:02:36;;;;;;;16.27;10.57;;;0.30;99.90;;;;;;5043676;28;20430;-68
2022/03/07 06:05:02;;;;;;;17.23;9.93;;;0.20;99.90;;;;;;5042015;28;20071;-68
2022/03/07 06:07:28;;;;;;;15.25;9.32;;;0.30;99.90;;;;;;5045111;28;20127;-69
2022/03/07 06:09:54;;;;;;;15.77;9.63;;;0.20;99.90;;;;;;5052085;28;20501;-68
2022/03/07 06:12:19;;;;;;;18.15;10.65;;;0.20;99.90;;;;;;5047441;28;20041;-69
2022/03/07 06:14:45;;;;;;;16.95;11.85;;;0.20;99.90;;;;;;5048147;28;20044;-68
2022/03/07 06:17:10;;;;;;;15.55;9.25;;;0.20;99.90;;;;;;5050432;28;20037;-68
2022/03/07 06:19:36;;;;;;;14.93;8.50;;;0.20;99.90;;;;;;5052472;28;20040;-68
2022/03/07 06:22:01;;;;;;;13.73;9.05;;;0.30;99.90;;;;;;5051660;28;20543;-68
2022/03/07 06:24:29;;;;;;;17.20;9.35;;;0.30;99.90;;;;;;5054699;28;20401;-69
2022/03/07 06:26:56;;;;;;;15.60;9.18;;;0.30;99.90;;;;;;5055958;28;20064;-69
2022/03/07 06:29:22;;;;;;;15.32;9.75;;;0.30;99.90;;;;;;5053933;28;20094;-70
2022/03/07 06:31:48;;;;;;;15.13;9.65;;;0.40;99.90;;;;;;5051093;28;20048;-69
2022/03/07 06:34:14;;;;;;;12.65;9.18;;;0.40;99.90;;;;;;5051754;28;20048;-69
2022/03/07 06:36:39;;;;;;;13.07;9.20;;;0.40;99.90;;;;;;5051359;28;20045;-69
2022/03/07 06:39:06;;;;;;;12.13;8.32;;;0.40;99.90;;;;;;5051649;28;20041;-69
2022/03/07 06:41:31;;;;;;;17.08;9.65;;;0.40;99.90;;;;;;5051302;28;20120;-70
2022/03/07 06:43:58;;;;;;;12.68;8.70;;;0.30;99.90;;;;;;5050844;28;20076;-69
2022/03/07 06:46:23;;;;;;;15.77;9.07;;;0.40;99.90;;;;;;5051723;28;20121;-69
2022/03/07 06:48:49;;;;;;;16.38;9.50;;;0.40;99.90;;;;;;5051385;28;20117;-71
2022/03/07 06:51:14;;;;;;;18.42;9.98;;;0.40;99.90;;;;;;5051396;28;20362;-70
2022/03/07 06:53:40;;;;;;;13.85;9.65;;;0.40;99.90;;;;;;5050353;28;20047;-69
2022/03/07 06:56:06;;;;;;;15.23;9.35;;;0.40;99.90;;;;;;5049621;28;20048;-69
2022/03/07 06:58:31;;;;;;;15.07;10.00;;;0.40;99.90;;;;;;5051036;28;20082;-69
2022/03/07 07:00:57;;;;;;;16.65;10.02;;;0.50;99.90;;;;;;5049621;28;20462;-69
2022/03/07 07:03:22;;;;;;;19.50;10.95;;;0.50;99.90;;;;;;5050094;28;20045;-69
2022/03/07 07:05:48;;;;;;;14.80;9.45;;;0.50;99.90;;;;;;5051230;28;20036;-69
2022/03/07 07:08:13;;;;;;;19.20;10.73;;;0.50;99.90;;;;;;5051021;28;20041;-69
2022/03/07 07:10:39;;;;;;;19.55;11.02;;;0.50;99.90;;;;;;5051548;28;20143;-69
2022/03/07 07:13:04;;;;;;;17.55;11.48;;;0.50;99.90;;;;;;5054524;28;20099;-69
2022/03/07 07:15:30;;;;;;;18.60;10.30;;;0.60;99.90;;;;;;5068869;28;20037;-69
2022/03/07 07:17:56;;;;;;;16.55;9.55;;;0.60;99.90;;;;;;5054288;28;20086;-69
2022/03/07 07:20:21;;;;;;;20.25;11.18;;;0.70;99.90;;;;;;5050860;28;20037;-69
2022/03/07 07:22:47;;;;;;;16.48;10.68;;;0.70;99.90;;;;;;5050021;28;20036;-69
2022/03/07 07:25:12;;;;;;;14.55;10.95;;;0.80;99.90;;;;;;5050988;28;20172;-69
2022/03/07 07:27:39;;;;;;;17.77;11.27;;;0.90;99.90;;;;;;5050379;28;20114;-69
2022/03/07 07:30:09;;;;;;;15.73;9.95;;;0.90;99.90;;;;;;5049034;28;20044;-69
2022/03/07 07:32:35;;;;;;;18.08;9.57;;;1.00;99.90;;;;;;5047545;28;20031;-68
2022/03/07 07:35:00;;;;;;;16.88;9.80;;;1.00;99.90;;;;;;5050346;28;20569;-69
2022/03/07 07:37:26;;;;;;;20.50;10.45;;;1.10;99.90;;;;;;5048483;28;20131;-69
2022/03/07 07:39:52;;;;;;;19.15;10.13;;;1.10;99.90;;;;;;5049197;28;20047;-69
2022/03/07 07:42:17;;;;;;;15.02;9.60;;;1.20;99.90;;;;;;5049457;28;20120;-69
2022/03/07 07:44:43;;;;;;;15.07;9.68;;;1.20;99.90;;;;;;5050806;28;20032;-69
2022/03/07 07:47:09;;;;;;;18.48;10.68;;;1.30;99.90;;;;;;5052976;28;20041;-69
2022/03/07 07:49:34;;;;;;;18.02;10.90;;;1.30;99.90;;;;;;5051147;28;20478;-69
2022/03/07 07:52:01;;;;;;;14.27;9.48;;;1.30;99.90;;;;;;5049341;28;20497;-69
2022/03/07 07:54:29;;;;;;;17.42;10.93;;;1.40;99.90;;;;;;5048332;28;20041;-69
2022/03/07 07:56:55;;;;;;;17.52;11.05;;;1.50;99.90;;;;;;5049844;28;20049;-68
2022/03/07 07:59:20;;;;;;;16.92;10.20;;;1.50;99.90;;;;;;5050326;28;20041;-68
2022/03/07 08:01:46;;;;;;;16.83;10.45;;;1.50;99.90;;;;;;5049558;28;20055;-69
2022/03/07 08:04:12;;;;;;;16.23;11.05;;;1.50;99.90;;;;;;5050109;28;20041;-68
2022/03/07 08:06:39;;;;;;;20.55;10.93;;;1.60;99.90;;;;;;5050067;28;20048;-69
2022/03/07 08:09:05;;;;;;;18.02;11.50;;;1.80;99.90;;;;;;5050017;28;20116;-69
2022/03/07 08:11:30;;;;;;;16.17;10.82;;;1.90;99.90;;;;;;5049841;28;20560;-69
2022/03/07 08:13:56;;;;;;;14.27;10.57;;;2.00;99.90;;;;;;5049496;28;20098;-69
2022/03/07 08:16:21;;;;;;;18.58;10.38;;;2.00;99.90;;;;;;5049814;28;20044;-69
2022/03/07 08:18:47;;;;;;;19.52;10.27;;;2.10;99.90;;;;;;5050198;28;20124;-69
2022/03/07 08:21:12;;;;;;;20.52;11.02;;;2.10;99.90;;;;;;5063827;28;20041;-69
2022/03/07 08:23:38;;;;;;;19.20;11.38;;;2.20;99.90;;;;;;5068036;28;20036;-68
2022/03/07 08:26:04;;;;;;;17.00;10.40;;;2.30;99.90;;;;;;5068330;28;20090;-68
2022/03/07 08:28:29;;;;;;;16.30;10.35;;;2.40;99.90;;;;;;5069857;28;20036;-69
2022/03/07 08:30:55;;;;;;;15.80;9.18;;;2.50;99.90;;;;;;5069690;28;20386;-69
2022/03/07 08:33:20;;;;;;;15.80;9.95;;;2.30;99.90;;;;;;5067406;28;20560;-69
2022/03/07 08:35:46;;;;;;;15.70;10.75;;;2.40;99.90;;;;;;5069691;28;20442;-69
2022/03/07 08:38:12;;;;;;;19.67;10.02;;;2.50;99.90;;;;;;5069769;28;20082;-73
2022/03/07 08:40:37;;;;;;;17.30;8.85;;;2.60;99.90;;;;;;5076955;28;20092;-75
2022/03/07 08:43:03;;;;;;;20.13;9.20;;;2.70;99.90;;;;;;5097520;28;20033;-76
2022/03/07 08:45:29;;;;;;;16.08;8.98;;;2.70;99.90;;;;;;5072458;28;20075;-74
2022/03/07 08:47:55;;;;;;;12.48;8.93;;;2.80;99.90;;;;;;5057056;28;20429;-73
2022/03/07 08:50:21;;;;;;;22.00;8.20;;;2.90;99.90;;;;;;5056357;28;20036;-74
2022/03/07 08:52:47;;;;;;;17.48;8.65;;;3.00;99.90;;;;;;5062087;28;20035;-74
2022/03/07 08:55:14;;;;;;;14.68;8.90;;;3.00;99.90;;;;;;5057802;28;20098;-74
2022/03/07 08:57:39;;;;;;;11.88;7.47;;;3.10;99.90;;;;;;5053885;28;20041;-74
2022/03/07 09:00:10;;;;;;;14.30;7.53;;;3.10;99.90;;;;;;5054468;28;20116;-74
2022/03/07 09:02:35;;;;;;;18.20;7.45;;;3.20;99.90;;;;;;5054341;28;20056;-74
2022/03/07 09:05:02;;;;;;;13.48;7.07;;;3.30;99.90;;;;;;5053740;28;20113;-74
2022/03/07 09:07:28;;;;;;;13.30;6.45;;;3.20;99.90;;;;;;5055607;28;20053;-74
2022/03/07 09:09:55;;;;;;;17.73;7.13;;;3.10;99.90;;;;;;5063152;28;20120;-73
2022/03/07 09:12:22;;;;;;;13.20;7.28;;;3.30;99.90;;;;;;5060631;28;20047;-74
2022/03/07 09:14:48;;;;;;;10.93;7.07;;;3.30;99.90;;;;;;5058083;28;20049;-73
2022/03/07 09:17:14;;;;;;;11.30;7.30;;;3.40;99.90;;;;;;5053244;28;20052;-71
2022/03/07 09:19:39;;;;;;;10.88;6.72;;;3.30;99.90;;;;;;5051724;28;20493;-74
2022/03/07 09:22:05;;;;;;;12.05;5.70;;;3.30;99.90;;;;;;5052164;28;20039;-71
2022/03/07 09:24:31;;;;;;;10.20;5.82;;;3.40;99.90;;;;;;5052355;28;20051;-71
2022/03/07 09:26:56;;;;;;;10.30;6.28;;;3.30;99.90;;;;;;5052652;28;20041;-71
2022/03/07 09:29:24;;;;;;;9.30;5.95;;;3.30;99.90;;;;;;5053099;28;20764;-71
2022/03/07 09:31:49;;;;;;;10.18;5.40;;;3.30;99.90;;;;;;5052110;28;20047;-71
2022/03/07 09:34:15;;;;;;;10.45;5.38;;;3.50;99.90;;;;;;5052827;28;20497;-72
2022/03/07 09:36:42;;;;;;;10.30;5.53;;;3.60;99.90;;;;;;5052648;28;20040;-71
2022/03/07 09:39:08;;;;;;;10.75;6.47;;;3.70;99.90;;;;;;5052706;28;20641;-71
2022/03/07 09:41:34;;;;;;;12.70;6.18;;;3.90;99.90;;;;;;5052534;28;20457;-71
2022/03/07 09:44:00;;;;;;;10.35;5.93;;;3.90;99.90;;;;;;5052403;28;20040;-71
2022/03/07 09:46:26;;;;;;;11.35;6.05;;;4.00;99.90;;;;;;5052526;28;20128;-71
2022/03/07 09:48:52;;;;;;;11.82;5.85;;;4.10;99.90;;;;;;5051139;28;20049;-71
2022/03/07 09:51:18;;;;;;;13.93;7.03;;;4.30;99.90;;;;;;5051194;28;20218;-71
2022/03/07 09:53:43;;;;;;;15.43;6.60;;;4.40;99.90;;;;;;5050026;28;20109;-71
2022/03/07 09:56:09;;;;;;;11.30;6.30;;;4.40;99.90;;;;;;5049321;28;20037;-71
2022/03/07 09:58:35;;;;;;;15.40;7.25;;;4.40;99.90;;;;;;5052171;28;20065;-71
2022/03/07 10:01:13;;;;;;;13.18;7.28;;;4.60;99.90;;;;;;5051121;28;20041;-69
2022/03/07 10:03:39;;;;;;;15.38;7.35;;;4.60;99.90;;;;;;5052629;28;20029;-70
2022/03/07 10:06:19;;;;;;;17.85;6.55;;;4.70;99.90;;;;;;5072114;28;20048;-69
2022/03/07 10:08:53;;;;;;;12.18;6.18;;;4.60;99.90;;;;;;5069774;28;20048;-70
2022/03/07 10:11:19;;;;;;;12.75;6.88;;;4.60;99.90;;;;;;5052586;28;20094;-70
2022/03/07 10:13:54;;;;;;;13.00;7.07;;;4.70;99.90;;;;;;5050606;28;20041;-69
2022/03/07 10:16:20;;;;;;;12.60;6.90;;;4.80;99.90;;;;;;5052854;28;20037;-66
2022/03/07 10:18:51;;;;;;;11.18;5.55;;;4.80;99.90;;;;;;5052730;28;20037;-65
2022/03/07 10:21:27;;;;;;;10.25;4.13;;;5.00;99.90;;;;;;5057308;28;20035;-64
2022/03/07 10:23:57;;;;;;;10.02;4.47;;;5.10;99.90;;;;;;5059932;28;20398;-64
2022/03/07 10:26:24;;;;;;;6.32;4.40;;;5.10;99.90;;;;;;5054635;28;20048;-64
2022/03/07 10:28:58;;;;;;;10.13;4.85;;;5.10;99.90;;;;;;5051678;28;20048;-64
2022/03/07 10:31:24;;;;;;;11.95;5.55;;;5.10;99.90;;;;;;5050326;28;20049;-64
2022/03/07 10:34:07;;;;;;;9.75;5.32;;;5.10;99.90;;;;;;5051823;28;20346;-64
2022/03/07 10:36:42;;;;;;;9.23;5.10;;;5.10;99.90;;;;;;5052748;28;20049;-64
2022/03/07 10:39:11;;;;;;;10.35;5.25;;;5.20;99.90;;;;;;5052444;28;20091;-65
2022/03/07 10:41:40;;;;;;;9.07;4.78;;;5.20;99.90;;;;;;5051407;28;20536;-66
2022/03/07 10:44:08;;;;;;;11.32;5.60;;;5.20;99.90;;;;;;5050760;28;20033;-66
2022/03/07 10:46:34;;;;;;;14.88;4.93;;;5.30;99.90;;;;;;5051270;28;20048;-66
2022/03/07 10:49:00;;;;;;;9.38;4.10;;;5.30;99.90;;;;;;5050971;28;20048;-66
2022/03/07 10:51:26;;;;;;;5.93;3.85;;;5.40;99.90;;;;;;5051336;28;20044;-66
2022/03/07 10:53:53;;;;;;;7.57;4.15;;;5.50;99.90;;;;;;5050200;28;20041;-66
2022/03/07 10:56:21;;;;;;;7.35;3.55;;;5.70;99.90;;;;;;5050967;28;20174;-66
2022/03/07 10:58:54;;;;;;;10.63;4.00;;;5.70;99.90;;;;;;5050868;28;20040;-66
2022/03/07 11:01:31;;;;;;;8.23;4.20;;;5.70;99.90;;;;;;5066999;28;20033;-66
2022/03/07 11:03:57;;;;;;;7.15;3.42;;;5.70;99.90;;;;;;5084490;28;20032;-66
2022/03/07 11:06:26;;;;;;;5.13;3.58;;;5.90;99.90;;;;;;5090428;28;20192;-66
2022/03/07 11:08:53;;;;;;;7.50;3.55;;;6.00;99.90;;;;;;5090808;28;20382;-66
2022/03/07 11:11:20;;;;;;;6.55;4.05;;;6.00;99.90;;;;;;5090847;28;20068;-66
2022/03/07 11:13:52;;;;;;;6.70;3.40;;;5.90;99.90;;;;;;5091675;28;20036;-65
2022/03/07 11:16:21;;;;;;;9.20;4.40;;;6.00;99.90;;;;;;5093253;28;20451;-66
2022/03/07 11:18:53;;;;;;;4.22;3.10;;;6.10;99.90;;;;;;5090814;28;20738;-66
2022/03/07 11:21:18;;;;;;;6.90;3.55;;;6.10;99.90;;;;;;5090467;28;20032;-66
2022/03/07 11:23:45;;;;;;;4.90;2.75;;;6.10;99.90;;;;;;5086322;28;20038;-66
2022/03/07 11:26:11;;;;;;;4.93;3.05;;;6.10;99.90;;;;;;5084133;28;20058;-66
2022/03/07 11:28:37;;;;;;;6.85;3.22;;;6.20;99.90;;;;;;5091154;28;20040;-66
2022/03/07 11:31:02;;;;;;;4.68;2.58;;;6.30;99.90;;;;;;5076262;28;20071;-67
2022/03/07 11:33:37;;;;;;;4.32;3.05;;;6.40;99.90;;;;;;5079879;28;20096;-67
2022/03/07 11:36:04;;;;;;;7.65;3.50;;;6.60;99.90;;;;;;5068708;28;20047;-67
2022/03/07 11:38:32;;;;;;;6.35;4.00;;;6.50;99.90;;;;;;5070681;28;20493;-67
2022/03/07 11:41:09;;;;;;;6.07;3.33;;;6.50;99.90;;;;;;5070135;28;20047;-66
2022/03/07 11:43:51;;;;;;;6.28;3.90;;;6.50;99.90;;;;;;5068594;28;20036;-65
2022/03/07 11:46:23;;;;;;;7.63;4.35;;;6.60;99.90;;;;;;5070234;28;20036;-65
2022/03/07 11:48:49;;;;;;;8.55;4.38;;;6.70;99.90;;;;;;5068821;28;20083;-66
2022/03/07 11:51:20;;;;;;;7.10;3.75;;;6.60;99.90;;;;;;5069980;28;20508;-66
2022/03/07 11:53:46;;;;;;;7.97;3.92;;;6.70;99.90;;;;;;5069638;28;20427;-65
2022/03/07 11:56:36;;;;;;;8.30;4.32;;;6.60;99.90;;;;;;5070046;28;20043;-66
2022/03/07 11:59:04;;;;;;;8.63;4.53;;;6.60;99.90;;;;;;5061065;28;20086;-66
2022/03/07 12:01:31;;;;;;;9.98;5.30;;;6.60;99.90;;;;;;5059782;28;20645;-66
2022/03/07 12:04:14;;;;;;;9.13;4.47;;;6.70;99.90;;;;;;5057767;28;20032;-66
2022/03/07 12:06:41;;;;;;;6.53;4.00;;;6.70;99.90;;;;;;5058539;28;20037;-66
2022/03/07 12:09:08;;;;;;;5.60;4.32;;;6.70;99.90;;;;;;5054084;28;20049;-66
2022/03/07 12:11:35;;;;;;;6.63;4.40;;;6.70;99.90;;;;;;5049209;28;20119;-66
2022/03/07 12:14:04;;;;;;;10.48;3.95;;;6.70;99.90;;;;;;5049699;28;20489;-65
2022/03/07 12:16:40;;;;;;;5.63;3.38;;;6.70;99.90;;;;;;5049782;28;20049;-66
2022/03/07 12:19:13;;;;;;;4.55;3.03;;;6.60;99.90;;;;;;5050208;28;20041;-66
2022/03/07 12:21:41;;;;;;;;;;;6.60;99.90;;;;;;5050289;28;20399;-65
2022/03/07 12:24:09;;;;;;;6.60;3.67;;;6.70;99.90;;;;;;5050103;28;20273;-67
2022/03/07 12:26:52;;;;;;;5.32;3.55;;;6.80;99.90;;;;;;5050070;28;20090;-67
2022/03/07 12:29:21;;;;;;;7.53;3.90;;;6.90;99.90;;;;;;5049495;28;20041;-66
2022/03/07 12:31:49;;;;;;;6.50;3.85;;;6.90;99.90;;;;;;5048832;28;20087;-66
2022/03/07 12:34:22;;;;;;;9.35;3.88;;;7.00;99.90;;;;;;5050007;28;20041;-66
2022/03/07 12:37:08;;;;;;;4.82;3.97;;;6.90;99.90;;;;;;5050623;28;20041;-66
2022/03/07 12:39:50;;;;;;;6.78;4.20;;;7.10;99.90;;;;;;5054466;28;20091;-66
2022/03/07 12:42:17;;;;;;;5.82;3.72;;;7.00;99.90;;;;;;5049792;28;20033;-66
2022/03/07 12:44:43;;;;;;;5.35;3.80;;;7.00;99.90;;;;;;5048951;28;20370;-65
2022/03/07 12:47:11;;;;;;;7.45;3.78;;;7.10;99.90;;;;;;5058647;28;20037;-65